Laguna de Pozuelos, Argentina
Current Conditions -  °F | °C
As of 5:00 PM on Thursday 27 Nov 2014 (Local Time) from SLTJ Reporting Station
Thunderstorm Thunderstorm  
Wind Chill: 18°   Ceiling: 2700
Heat Index: 18°   Visibility: 6mi
Dew Point: 14°   Wind: 14mph
Humidity: 77%   Direction: 180°S
Pressure: 30.12"   Gusts: NA
Location:  22.37°S, 66.02°W
Report Text: SLTJ 272000Z 18012KT 9999 TSRA BKN027 FEW033CB OVC070 18/14 Q1020
Loading
Personal Weather Stations






























Interactive Weather Map New forecast layout! Learn more

10-Day Weather Forecast

Advertisements
Track Severe Weather on mobile